sensor_id;sensor_type;location;lat;lon;timestamp;temperature;humidity
83146;DHT22;73037;51.110;4.706;2023-12-20T00:00:36;5.70;83.10
83146;DHT22;73037;51.110;4.706;2023-12-20T00:03:03;5.70;83.00
83146;DHT22;73037;51.110;4.706;2023-12-20T00:05:29;5.60;83.20
83146;DHT22;73037;51.110;4.706;2023-12-20T00:07:57;5.60;83.40
83146;DHT22;73037;51.110;4.706;2023-12-20T00:10:23;5.60;83.10
83146;DHT22;73037;51.110;4.706;2023-12-20T00:12:48;5.60;83.40
83146;DHT22;73037;51.110;4.706;2023-12-20T00:15:14;5.60;83.40
83146;DHT22;73037;51.110;4.706;2023-12-20T00:17:40;5.70;83.40
83146;DHT22;73037;51.110;4.706;2023-12-20T00:20:06;5.70;83.50
83146;DHT22;73037;51.110;4.706;2023-12-20T00:22:32;5.70;83.00
83146;DHT22;73037;51.110;4.706;2023-12-20T00:24:57;5.70;83.20
83146;DHT22;73037;51.110;4.706;2023-12-20T00:27:23;5.80;83.50
83146;DHT22;73037;51.110;4.706;2023-12-20T00:29:49;5.70;83.00
83146;DHT22;73037;51.110;4.706;2023-12-20T00:32:16;5.60;83.00
83146;DHT22;73037;51.110;4.706;2023-12-20T00:34:42;5.60;83.00
83146;DHT22;73037;51.110;4.706;2023-12-20T00:37:08;5.60;83.00
83146;DHT22;73037;51.110;4.706;2023-12-20T00:39:34;5.60;83.20
83146;DHT22;73037;51.110;4.706;2023-12-20T00:41:59;5.60;83.20
83146;DHT22;73037;51.110;4.706;2023-12-20T00:44:25;5.60;83.20
83146;DHT22;73037;51.110;4.706;2023-12-20T00:46:51;5.60;83.10
83146;DHT22;73037;51.110;4.706;2023-12-20T00:49:17;5.50;83.30
83146;DHT22;73037;51.110;4.706;2023-12-20T00:51:43;5.50;83.30
83146;DHT22;73037;51.110;4.706;2023-12-20T00:54:08;5.50;83.20
83146;DHT22;73037;51.110;4.706;2023-12-20T00:56:35;5.40;83.30
83146;DHT22;73037;51.110;4.706;2023-12-20T00:59:00;5.40;83.40
83146;DHT22;73037;51.110;4.706;2023-12-20T01:01:26;5.30;83.00
83146;DHT22;73037;51.110;4.706;2023-12-20T01:03:52;5.30;83.40
83146;DHT22;73037;51.110;4.706;2023-12-20T01:06:18;5.30;83.40
83146;DHT22;73037;51.110;4.706;2023-12-20T01:08:44;5.30;83.40
83146;DHT22;73037;51.110;4.706;2023-12-20T01:11:10;5.20;83.10
83146;DHT22;73037;51.110;4.706;2023-12-20T01:13:36;5.10;82.90
83146;DHT22;73037;51.110;4.706;2023-12-20T01:16:01;5.10;83.00
83146;DHT22;73037;51.110;4.706;2023-12-20T01:18:27;5.10;83.20
83146;DHT22;73037;51.110;4.706;2023-12-20T01:20:53;5.00;83.10
83146;DHT22;73037;51.110;4.706;2023-12-20T01:23:19;5.00;83.20
83146;DHT22;73037;51.110;4.706;2023-12-20T01:25:44;5.00;83.40
83146;DHT22;73037;51.110;4.706;2023-12-20T01:28:10;5.00;83.20
83146;DHT22;73037;51.110;4.706;2023-12-20T01:30:36;5.00;82.90
83146;DHT22;73037;51.110;4.706;2023-12-20T01:33:01;4.90;83.20
83146;DHT22;73037;51.110;4.706;2023-12-20T01:35:27;4.90;83.20
83146;DHT22;73037;51.110;4.706;2023-12-20T01:37:53;4.90;83.00
83146;DHT22;73037;51.110;4.706;2023-12-20T01:40:22;4.90;83.40
83146;DHT22;73037;51.110;4.706;2023-12-20T01:43:01;4.90;83.40
83146;DHT22;73037;51.110;4.706;2023-12-20T01:45:27;4.80;83.00
83146;DHT22;73037;51.110;4.706;2023-12-20T01:47:54;4.80;83.20
83146;DHT22;73037;51.110;4.706;2023-12-20T01:50:21;4.80;83.00
83146;DHT22;73037;51.110;4.706;2023-12-20T01:52:47;4.70;83.00
83146;DHT22;73037;51.110;4.706;2023-12-20T01:55:14;4.70;83.40
83146;DHT22;73037;51.110;4.706;2023-12-20T01:57:43;4.70;83.50
83146;DHT22;73037;51.110;4.706;2023-12-20T02:00:11;4.70;83.40
83146;DHT22;73037;51.110;4.706;2023-12-20T02:02:39;4.70;83.50
83146;DHT22;73037;51.110;4.706;2023-12-20T02:05:08;4.70;83.30
83146;DHT22;73037;51.110;4.706;2023-12-20T02:07:34;4.70;83.10
83146;DHT22;73037;51.110;4.706;2023-12-20T02:10:01;4.70;83.10
83146;DHT22;73037;51.110;4.706;2023-12-20T02:12:27;4.70;83.20
83146;DHT22;73037;51.110;4.706;2023-12-20T02:14:52;4.60;83.30
83146;DHT22;73037;51.110;4.706;2023-12-20T02:17:19;4.70;83.50
83146;DHT22;73037;51.110;4.706;2023-12-20T02:19:45;4.70;83.50
83146;DHT22;73037;51.110;4.706;2023-12-20T02:22:11;4.70;83.40
83146;DHT22;73037;51.110;4.706;2023-12-20T02:24:38;4.70;83.30
83146;DHT22;73037;51.110;4.706;2023-12-20T02:27:05;4.70;83.70
83146;DHT22;73037;51.110;4.706;2023-12-20T02:29:33;4.90;83.60
83146;DHT22;73037;51.110;4.706;2023-12-20T02:31:58;5.00;83.50
83146;DHT22;73037;51.110;4.706;2023-12-20T02:34:24;5.00;83.60
83146;DHT22;73037;51.110;4.706;2023-12-20T02:36:50;5.20;83.50
83146;DHT22;73037;51.110;4.706;2023-12-20T02:39:16;5.30;83.50
83146;DHT22;73037;51.110;4.706;2023-12-20T02:41:41;5.40;83.50
83146;DHT22;73037;51.110;4.706;2023-12-20T02:44:07;5.50;83.30
83146;DHT22;73037;51.110;4.706;2023-12-20T02:46:33;5.50;83.20
83146;DHT22;73037;51.110;4.706;2023-12-20T02:48:58;5.60;83.40
83146;DHT22;73037;51.110;4.706;2023-12-20T02:51:24;5.60;83.10
83146;DHT22;73037;51.110;4.706;2023-12-20T02:53:50;5.60;83.20
83146;DHT22;73037;51.110;4.706;2023-12-20T02:56:15;5.50;83.00
83146;DHT22;73037;51.110;4.706;2023-12-20T02:58:41;5.50;83.10
83146;DHT22;73037;51.110;4.706;2023-12-20T03:01:07;5.50;83.20
83146;DHT22;73037;51.110;4.706;2023-12-20T03:03:32;5.50;83.30
83146;DHT22;73037;51.110;4.706;2023-12-20T03:06:00;5.50;83.10
83146;DHT22;73037;51.110;4.706;2023-12-20T03:08:25;5.50;83.10
83146;DHT22;73037;51.110;4.706;2023-12-20T03:10:51;5.50;83.10
83146;DHT22;73037;51.110;4.706;2023-12-20T03:13:17;5.60;83.20
83146;DHT22;73037;51.110;4.706;2023-12-20T03:15:42;5.70;83.30
83146;DHT22;73037;51.110;4.706;2023-12-20T03:18:08;5.80;83.30
83146;DHT22;73037;51.110;4.706;2023-12-20T03:20:34;5.80;83.20
83146;DHT22;73037;51.110;4.706;2023-12-20T03:23:03;5.90;83.30
83146;DHT22;73037;51.110;4.706;2023-12-20T03:25:29;5.90;83.10
83146;DHT22;73037;51.110;4.706;2023-12-20T03:27:55;5.90;82.90
83146;DHT22;73037;51.110;4.706;2023-12-20T03:30:21;5.90;83.00
83146;DHT22;73037;51.110;4.706;2023-12-20T03:32:47;5.90;82.80
83146;DHT22;73037;51.110;4.706;2023-12-20T03:35:13;5.80;83.00
83146;DHT22;73037;51.110;4.706;2023-12-20T03:37:39;5.80;83.30
83146;DHT22;73037;51.110;4.706;2023-12-20T03:40:05;5.90;83.10
83146;DHT22;73037;51.110;4.706;2023-12-20T03:42:30;5.90;83.00
83146;DHT22;73037;51.110;4.706;2023-12-20T03:44:56;5.90;82.90
83146;DHT22;73037;51.110;4.706;2023-12-20T03:47:22;6.00;83.00
83146;DHT22;73037;51.110;4.706;2023-12-20T03:49:47;6.00;82.80
83146;DHT22;73037;51.110;4.706;2023-12-20T03:52:13;6.00;82.80
83146;DHT22;73037;51.110;4.706;2023-12-20T03:54:39;6.00;82.80
83146;DHT22;73037;51.110;4.706;2023-12-20T03:57:07;6.00;82.80
83146;DHT22;73037;51.110;4.706;2023-12-20T03:59:37;6.00;82.90
83146;DHT22;73037;51.110;4.706;2023-12-20T04:02:03;6.00;82.90
83146;DHT22;73037;51.110;4.706;2023-12-20T04:04:29;5.90;82.90
83146;DHT22;73037;51.110;4.706;2023-12-20T04:06:54;5.90;82.90
83146;DHT22;73037;51.110;4.706;2023-12-20T04:09:20;5.80;83.10
83146;DHT22;73037;51.110;4.706;2023-12-20T04:11:46;5.80;82.90
83146;DHT22;73037;51.110;4.706;2023-12-20T04:14:11;5.70;82.90
83146;DHT22;73037;51.110;4.706;2023-12-20T04:16:37;5.70;83.10
83146;DHT22;73037;51.110;4.706;2023-12-20T04:19:04;5.60;82.90
83146;DHT22;73037;51.110;4.706;2023-12-20T04:21:30;5.60;82.80
83146;DHT22;73037;51.110;4.706;2023-12-20T04:23:56;5.60;83.30
83146;DHT22;73037;51.110;4.706;2023-12-20T04:26:22;5.60;83.20
83146;DHT22;73037;51.110;4.706;2023-12-20T04:28:47;5.50;83.00
83146;DHT22;73037;51.110;4.706;2023-12-20T04:31:13;5.50;83.10
83146;DHT22;73037;51.110;4.706;2023-12-20T04:33:39;5.50;83.20
83146;DHT22;73037;51.110;4.706;2023-12-20T04:36:04;5.50;83.30
83146;DHT22;73037;51.110;4.706;2023-12-20T04:38:30;5.50;83.30
83146;DHT22;73037;51.110;4.706;2023-12-20T04:40:56;5.50;83.20
83146;DHT22;73037;51.110;4.706;2023-12-20T04:43:22;5.50;83.20
83146;DHT22;73037;51.110;4.706;2023-12-20T04:45:47;5.50;83.40
83146;DHT22;73037;51.110;4.706;2023-12-20T04:48:13;5.50;83.30
83146;DHT22;73037;51.110;4.706;2023-12-20T04:50:39;5.50;83.40
83146;DHT22;73037;51.110;4.706;2023-12-20T04:53:05;5.50;83.40
83146;DHT22;73037;51.110;4.706;2023-12-20T04:55:30;5.50;83.30
83146;DHT22;73037;51.110;4.706;2023-12-20T04:57:56;5.60;83.30
83146;DHT22;73037;51.110;4.706;2023-12-20T05:00:22;5.50;83.20
83146;DHT22;73037;51.110;4.706;2023-12-20T05:02:47;5.60;83.40
83146;DHT22;73037;51.110;4.706;2023-12-20T05:05:13;5.50;83.00
83146;DHT22;73037;51.110;4.706;2023-12-20T05:07:40;5.50;83.30
83146;DHT22;73037;51.110;4.706;2023-12-20T05:10:06;5.50;83.30
83146;DHT22;73037;51.110;4.706;2023-12-20T05:12:34;5.50;83.30
83146;DHT22;73037;51.110;4.706;2023-12-20T05:15:00;5.50;83.00
83146;DHT22;73037;51.110;4.706;2023-12-20T05:17:25;5.50;83.00
83146;DHT22;73037;51.110;4.706;2023-12-20T05:19:51;5.50;83.20
83146;DHT22;73037;51.110;4.706;2023-12-20T05:22:18;5.50;83.20
83146;DHT22;73037;51.110;4.706;2023-12-20T05:24:45;5.50;83.10
83146;DHT22;73037;51.110;4.706;2023-12-20T05:27:10;5.40;83.30
83146;DHT22;73037;51.110;4.706;2023-12-20T05:29:37;5.40;83.10
83146;DHT22;73037;51.110;4.706;2023-12-20T05:32:02;5.30;83.00
83146;DHT22;73037;51.110;4.706;2023-12-20T05:34:30;5.30;82.90
83146;DHT22;73037;51.110;4.706;2023-12-20T05:36:55;5.30;82.90
83146;DHT22;73037;51.110;4.706;2023-12-20T05:39:21;5.20;82.90
83146;DHT22;73037;51.110;4.706;2023-12-20T05:41:50;5.20;83.10
83146;DHT22;73037;51.110;4.706;2023-12-20T05:44:15;5.20;83.30
83146;DHT22;73037;51.110;4.706;2023-12-20T05:46:41;5.30;83.40
83146;DHT22;73037;51.110;4.706;2023-12-20T05:49:07;5.20;83.40
83146;DHT22;73037;51.110;4.706;2023-12-20T05:51:32;5.30;83.50
83146;DHT22;73037;51.110;4.706;2023-12-20T05:53:58;5.20;83.10
83146;DHT22;73037;51.110;4.706;2023-12-20T05:56:24;5.30;83.50
83146;DHT22;73037;51.110;4.706;2023-12-20T05:58:50;5.30;83.30
83146;DHT22;73037;51.110;4.706;2023-12-20T06:01:16;5.20;83.20
83146;DHT22;73037;51.110;4.706;2023-12-20T06:03:44;5.20;83.20
83146;DHT22;73037;51.110;4.706;2023-12-20T06:06:11;5.30;83.40
83146;DHT22;73037;51.110;4.706;2023-12-20T06:08:38;5.30;83.50
83146;DHT22;73037;51.110;4.706;2023-12-20T06:11:04;5.30;83.20
83146;DHT22;73037;51.110;4.706;2023-12-20T06:13:31;5.30;83.30
83146;DHT22;73037;51.110;4.706;2023-12-20T06:15:57;5.30;83.30
83146;DHT22;73037;51.110;4.706;2023-12-20T06:18:23;5.30;83.40
83146;DHT22;73037;51.110;4.706;2023-12-20T06:20:50;5.30;83.30
83146;DHT22;73037;51.110;4.706;2023-12-20T06:23:15;5.30;83.00
83146;DHT22;73037;51.110;4.706;2023-12-20T06:25:41;5.30;83.20
83146;DHT22;73037;51.110;4.706;2023-12-20T06:28:07;5.30;83.20
83146;DHT22;73037;51.110;4.706;2023-12-20T06:30:33;5.30;82.70
83146;DHT22;73037;51.110;4.706;2023-12-20T06:32:59;5.30;83.20
83146;DHT22;73037;51.110;4.706;2023-12-20T06:35:25;5.40;83.00
83146;DHT22;73037;51.110;4.706;2023-12-20T06:37:51;5.40;83.20
83146;DHT22;73037;51.110;4.706;2023-12-20T06:40:17;5.40;83.30
83146;DHT22;73037;51.110;4.706;2023-12-20T06:42:44;5.30;83.00
83146;DHT22;73037;51.110;4.706;2023-12-20T06:45:10;5.30;82.80
83146;DHT22;73037;51.110;4.706;2023-12-20T06:47:36;5.30;82.80
83146;DHT22;73037;51.110;4.706;2023-12-20T06:50:01;5.30;83.00
83146;DHT22;73037;51.110;4.706;2023-12-20T06:52:27;5.30;82.70
83146;DHT22;73037;51.110;4.706;2023-12-20T06:54:52;5.30;83.10
83146;DHT22;73037;51.110;4.706;2023-12-20T06:57:18;5.30;83.20
83146;DHT22;73037;51.110;4.706;2023-12-20T06:59:45;5.30;83.20
83146;DHT22;73037;51.110;4.706;2023-12-20T07:02:11;5.30;83.30
83146;DHT22;73037;51.110;4.706;2023-12-20T07:04:40;5.30;83.20
83146;DHT22;73037;51.110;4.706;2023-12-20T07:07:06;5.40;83.20
83146;DHT22;73037;51.110;4.706;2023-12-20T07:09:33;5.40;83.20
83146;DHT22;73037;51.110;4.706;2023-12-20T07:11:59;5.40;83.10
83146;DHT22;73037;51.110;4.706;2023-12-20T07:14:24;5.40;83.20
83146;DHT22;73037;51.110;4.706;2023-12-20T07:16:50;5.50;82.90
83146;DHT22;73037;51.110;4.706;2023-12-20T07:19:16;5.40;82.70
83146;DHT22;73037;51.110;4.706;2023-12-20T07:21:41;5.40;82.60
83146;DHT22;73037;51.110;4.706;2023-12-20T07:24:07;5.40;82.80
83146;DHT22;73037;51.110;4.706;2023-12-20T07:26:33;5.30;82.70
83146;DHT22;73037;51.110;4.706;2023-12-20T07:28:59;5.40;83.00
83146;DHT22;73037;51.110;4.706;2023-12-20T07:31:25;5.50;83.00
83146;DHT22;73037;51.110;4.706;2023-12-20T07:33:50;5.40;82.60
83146;DHT22;73037;51.110;4.706;2023-12-20T07:36:16;5.40;82.50
83146;DHT22;73037;51.110;4.706;2023-12-20T07:38:42;5.30;83.00
83146;DHT22;73037;51.110;4.706;2023-12-20T07:41:10;5.30;82.80
83146;DHT22;73037;51.110;4.706;2023-12-20T07:43:36;5.30;82.60
83146;DHT22;73037;51.110;4.706;2023-12-20T07:46:08;5.30;82.90
83146;DHT22;73037;51.110;4.706;2023-12-20T07:48:37;5.30;82.90
83146;DHT22;73037;51.110;4.706;2023-12-20T07:51:06;5.40;83.10
83146;DHT22;73037;51.110;4.706;2023-12-20T07:53:34;5.40;82.50
83146;DHT22;73037;51.110;4.706;2023-12-20T07:56:00;5.40;82.90
83146;DHT22;73037;51.110;4.706;2023-12-20T07:58:26;5.40;82.20
83146;DHT22;73037;51.110;4.706;2023-12-20T08:00:52;5.40;82.60
83146;DHT22;73037;51.110;4.706;2023-12-20T08:03:17;5.40;82.60
83146;DHT22;73037;51.110;4.706;2023-12-20T08:05:43;5.40;82.30
83146;DHT22;73037;51.110;4.706;2023-12-20T08:08:08;5.50;82.40
83146;DHT22;73037;51.110;4.706;2023-12-20T08:10:34;5.50;82.60
83146;DHT22;73037;51.110;4.706;2023-12-20T08:13:00;5.60;82.40
83146;DHT22;73037;51.110;4.706;2023-12-20T08:15:26;5.70;82.50
83146;DHT22;73037;51.110;4.706;2023-12-20T08:17:51;5.70;82.10
83146;DHT22;73037;51.110;4.706;2023-12-20T08:20:17;5.80;82.40
83146;DHT22;73037;51.110;4.706;2023-12-20T08:22:43;5.90;82.80
83146;DHT22;73037;51.110;4.706;2023-12-20T08:25:09;5.90;82.80
83146;DHT22;73037;51.110;4.706;2023-12-20T08:27:41;6.00;82.00
83146;DHT22;73037;51.110;4.706;2023-12-20T08:30:08;6.00;81.90
83146;DHT22;73037;51.110;4.706;2023-12-20T08:32:35;6.00;82.10
83146;DHT22;73037;51.110;4.706;2023-12-20T08:35:00;5.90;82.00
83146;DHT22;73037;51.110;4.706;2023-12-20T08:37:26;5.80;81.80
83146;DHT22;73037;51.110;4.706;2023-12-20T08:39:51;5.70;81.40
83146;DHT22;73037;51.110;4.706;2023-12-20T08:42:17;5.70;81.60
83146;DHT22;73037;51.110;4.706;2023-12-20T08:44:43;5.70;82.10
83146;DHT22;73037;51.110;4.706;2023-12-20T08:47:09;5.70;82.30
83146;DHT22;73037;51.110;4.706;2023-12-20T08:49:38;5.60;82.10
83146;DHT22;73037;51.110;4.706;2023-12-20T08:52:04;5.70;82.30
83146;DHT22;73037;51.110;4.706;2023-12-20T08:54:30;5.70;82.20
83146;DHT22;73037;51.110;4.706;2023-12-20T08:56:56;5.70;81.80
83146;DHT22;73037;51.110;4.706;2023-12-20T08:59:21;5.80;82.00
83146;DHT22;73037;51.110;4.706;2023-12-20T09:01:47;5.80;81.60
83146;DHT22;73037;51.110;4.706;2023-12-20T09:04:13;5.90;82.30
83146;DHT22;73037;51.110;4.706;2023-12-20T09:06:39;6.00;82.20
83146;DHT22;73037;51.110;4.706;2023-12-20T09:09:05;6.00;81.50
83146;DHT22;73037;51.110;4.706;2023-12-20T09:11:31;6.00;81.90
83146;DHT22;73037;51.110;4.706;2023-12-20T09:13:57;6.00;81.90
83146;DHT22;73037;51.110;4.706;2023-12-20T09:16:22;6.00;81.70
83146;DHT22;73037;51.110;4.706;2023-12-20T09:18:48;6.00;81.20
83146;DHT22;73037;51.110;4.706;2023-12-20T09:21:14;6.00;81.40
83146;DHT22;73037;51.110;4.706;2023-12-20T09:23:40;6.00;81.60
83146;DHT22;73037;51.110;4.706;2023-12-20T09:26:05;6.00;81.90
83146;DHT22;73037;51.110;4.706;2023-12-20T09:28:31;6.10;81.60
83146;DHT22;73037;51.110;4.706;2023-12-20T09:31:02;6.20;81.80
83146;DHT22;73037;51.110;4.706;2023-12-20T09:33:28;6.20;81.30
83146;DHT22;73037;51.110;4.706;2023-12-20T09:35:54;6.30;81.50
83146;DHT22;73037;51.110;4.706;2023-12-20T09:38:19;6.30;81.60
83146;DHT22;73037;51.110;4.706;2023-12-20T09:40:45;6.30;80.50
83146;DHT22;73037;51.110;4.706;2023-12-20T09:43:14;6.30;81.10
83146;DHT22;73037;51.110;4.706;2023-12-20T09:45:40;6.30;80.30
83146;DHT22;73037;51.110;4.706;2023-12-20T09:48:07;6.30;81.10
83146;DHT22;73037;51.110;4.706;2023-12-20T09:50:36;6.40;80.90
83146;DHT22;73037;51.110;4.706;2023-12-20T09:53:02;6.40;81.00
83146;DHT22;73037;51.110;4.706;2023-12-20T09:55:30;6.50;80.90
83146;DHT22;73037;51.110;4.706;2023-12-20T09:57:57;6.60;80.50
83146;DHT22;73037;51.110;4.706;2023-12-20T10:00:23;6.60;80.40
83146;DHT22;73037;51.110;4.706;2023-12-20T10:05:17;6.80;80.60
83146;DHT22;73037;51.110;4.706;2023-12-20T10:07:46;7.00;80.60
83146;DHT22;73037;51.110;4.706;2023-12-20T10:10:13;7.10;79.30
83146;DHT22;73037;51.110;4.706;2023-12-20T10:12:39;7.20;79.40
83146;DHT22;73037;51.110;4.706;2023-12-20T10:15:06;7.20;79.30
83146;DHT22;73037;51.110;4.706;2023-12-20T10:17:31;7.20;78.70
83146;DHT22;73037;51.110;4.706;2023-12-20T10:19:57;7.40;79.50
83146;DHT22;73037;51.110;4.706;2023-12-20T10:22:24;7.40;79.10
83146;DHT22;73037;51.110;4.706;2023-12-20T10:24:49;7.40;79.00
83146;DHT22;73037;51.110;4.706;2023-12-20T10:27:18;7.50;78.90
83146;DHT22;73037;51.110;4.706;2023-12-20T10:29:44;7.50;78.70
83146;DHT22;73037;51.110;4.706;2023-12-20T10:32:30;7.60;78.50
83146;DHT22;73037;51.110;4.706;2023-12-20T10:34:57;7.80;78.40
83146;DHT22;73037;51.110;4.706;2023-12-20T10:37:22;7.80;78.40
83146;DHT22;73037;51.110;4.706;2023-12-20T10:39:52;7.90;79.00
83146;DHT22;73037;51.110;4.706;2023-12-20T10:42:22;7.90;78.20
83146;DHT22;73037;51.110;4.706;2023-12-20T10:44:51;7.90;77.90
83146;DHT22;73037;51.110;4.706;2023-12-20T10:47:21;7.80;78.40
83146;DHT22;73037;51.110;4.706;2023-12-20T10:49:48;7.80;77.50
83146;DHT22;73037;51.110;4.706;2023-12-20T10:52:15;7.80;77.60
83146;DHT22;73037;51.110;4.706;2023-12-20T10:54:42;7.80;77.20
83146;DHT22;73037;51.110;4.706;2023-12-20T10:57:08;7.80;78.10
83146;DHT22;73037;51.110;4.706;2023-12-20T10:59:36;7.80;78.20
83146;DHT22;73037;51.110;4.706;2023-12-20T11:02:03;7.80;78.30
83146;DHT22;73037;51.110;4.706;2023-12-20T11:04:51;7.80;77.90
83146;DHT22;73037;51.110;4.706;2023-12-20T11:07:38;7.90;78.50
83146;DHT22;73037;51.110;4.706;2023-12-20T11:10:48;7.90;77.80
83146;DHT22;73037;51.110;4.706;2023-12-20T11:13:20;7.90;77.90
83146;DHT22;73037;51.110;4.706;2023-12-20T11:15:48;7.80;77.80
83146;DHT22;73037;51.110;4.706;2023-12-20T11:18:14;7.80;78.20
83146;DHT22;73037;51.110;4.706;2023-12-20T11:20:41;7.80;78.60
83146;DHT22;73037;51.110;4.706;2023-12-20T11:23:08;7.80;78.20
83146;DHT22;73037;51.110;4.706;2023-12-20T11:25:55;7.80;78.30
83146;DHT22;73037;51.110;4.706;2023-12-20T11:28:22;7.80;79.20
83146;DHT22;73037;51.110;4.706;2023-12-20T11:30:52;7.80;78.70
83146;DHT22;73037;51.110;4.706;2023-12-20T11:33:26;7.80;78.70
83146;DHT22;73037;51.110;4.706;2023-12-20T11:35:52;7.70;78.10
83146;DHT22;73037;51.110;4.706;2023-12-20T11:38:21;7.60;79.10
83146;DHT22;73037;51.110;4.706;2023-12-20T11:40:49;7.60;79.70
83146;DHT22;73037;51.110;4.706;2023-12-20T11:43:37;7.70;79.90
83146;DHT22;73037;51.110;4.706;2023-12-20T11:46:08;7.70;80.00
83146;DHT22;73037;51.110;4.706;2023-12-20T11:48:39;7.80;79.80
83146;DHT22;73037;51.110;4.706;2023-12-20T11:51:12;7.70;80.10
83146;DHT22;73037;51.110;4.706;2023-12-20T11:53:39;7.70;80.10
83146;DHT22;73037;51.110;4.706;2023-12-20T11:56:08;7.80;80.00
83146;DHT22;73037;51.110;4.706;2023-12-20T11:58:36;7.80;79.70
83146;DHT22;73037;51.110;4.706;2023-12-20T12:01:02;7.80;80.30
83146;DHT22;73037;51.110;4.706;2023-12-20T12:03:28;7.80;80.20
83146;DHT22;73037;51.110;4.706;2023-12-20T12:05:53;7.80;80.30
83146;DHT22;73037;51.110;4.706;2023-12-20T12:08:19;7.90;80.50
83146;DHT22;73037;51.110;4.706;2023-12-20T12:10:45;8.00;80.30
83146;DHT22;73037;51.110;4.706;2023-12-20T12:13:11;8.10;80.00
83146;DHT22;73037;51.110;4.706;2023-12-20T12:15:37;8.10;80.30
83146;DHT22;73037;51.110;4.706;2023-12-20T12:18:03;8.20;80.60
83146;DHT22;73037;51.110;4.706;2023-12-20T12:20:29;8.20;80.10
83146;DHT22;73037;51.110;4.706;2023-12-20T12:25:25;8.10;79.40
83146;DHT22;73037;51.110;4.706;2023-12-20T12:27:51;8.00;80.30
83146;DHT22;73037;51.110;4.706;2023-12-20T12:30:17;8.00;80.70
83146;DHT22;73037;51.110;4.706;2023-12-20T12:32:44;8.10;80.40
83146;DHT22;73037;51.110;4.706;2023-12-20T12:35:10;8.10;80.30
83146;DHT22;73037;51.110;4.706;2023-12-20T12:37:38;8.10;80.70
83146;DHT22;73037;51.110;4.706;2023-12-20T12:40:06;8.10;80.80
83146;DHT22;73037;51.110;4.706;2023-12-20T12:42:32;8.10;80.70
83146;DHT22;73037;51.110;4.706;2023-12-20T12:44:58;8.20;80.90
83146;DHT22;73037;51.110;4.706;2023-12-20T12:47:24;8.10;80.20
83146;DHT22;73037;51.110;4.706;2023-12-20T12:49:51;8.10;80.20
83146;DHT22;73037;51.110;4.706;2023-12-20T12:52:18;8.10;79.70
83146;DHT22;73037;51.110;4.706;2023-12-20T12:54:44;8.10;80.30
83146;DHT22;73037;51.110;4.706;2023-12-20T12:57:11;8.10;80.00
83146;DHT22;73037;51.110;4.706;2023-12-20T12:59:36;8.20;79.90
83146;DHT22;73037;51.110;4.706;2023-12-20T13:02:02;8.20;80.40
83146;DHT22;73037;51.110;4.706;2023-12-20T13:04:28;8.30;80.50
83146;DHT22;73037;51.110;4.706;2023-12-20T13:06:54;8.30;80.00
83146;DHT22;73037;51.110;4.706;2023-12-20T13:09:20;8.40;80.00
83146;DHT22;73037;51.110;4.706;2023-12-20T13:11:46;8.40;80.30
83146;DHT22;73037;51.110;4.706;2023-12-20T13:14:11;8.40;79.60
83146;DHT22;73037;51.110;4.706;2023-12-20T13:16:41;8.40;79.40
83146;DHT22;73037;51.110;4.706;2023-12-20T13:19:07;8.50;79.60
83146;DHT22;73037;51.110;4.706;2023-12-20T13:21:33;8.50;78.60
83146;DHT22;73037;51.110;4.706;2023-12-20T13:23:59;8.50;78.90
83146;DHT22;73037;51.110;4.706;2023-12-20T13:26:25;8.50;77.70
83146;DHT22;73037;51.110;4.706;2023-12-20T13:28:50;8.50;79.00
83146;DHT22;73037;51.110;4.706;2023-12-20T13:31:16;8.50;79.50
83146;DHT22;73037;51.110;4.706;2023-12-20T13:33:42;8.50;79.40
83146;DHT22;73037;51.110;4.706;2023-12-20T13:36:08;8.60;79.20
83146;DHT22;73037;51.110;4.706;2023-12-20T13:38:34;8.60;79.50
83146;DHT22;73037;51.110;4.706;2023-12-20T13:40:59;8.50;79.00
83146;DHT22;73037;51.110;4.706;2023-12-20T13:43:25;8.50;78.70
83146;DHT22;73037;51.110;4.706;2023-12-20T13:45:51;8.40;79.00
83146;DHT22;73037;51.110;4.706;2023-12-20T13:48:16;8.40;78.70
83146;DHT22;73037;51.110;4.706;2023-12-20T13:50:42;8.50;79.00
83146;DHT22;73037;51.110;4.706;2023-12-20T13:53:08;8.50;78.90
83146;DHT22;73037;51.110;4.706;2023-12-20T13:55:33;8.50;78.70
83146;DHT22;73037;51.110;4.706;2023-12-20T13:57:59;8.60;79.00
83146;DHT22;73037;51.110;4.706;2023-12-20T14:00:25;8.60;78.90
83146;DHT22;73037;51.110;4.706;2023-12-20T14:02:50;8.60;78.10
83146;DHT22;73037;51.110;4.706;2023-12-20T14:05:16;8.60;78.50
83146;DHT22;73037;51.110;4.706;2023-12-20T14:07:45;8.70;77.90
83146;DHT22;73037;51.110;4.706;2023-12-20T14:10:12;8.70;78.20
83146;DHT22;73037;51.110;4.706;2023-12-20T14:12:41;8.80;77.60
83146;DHT22;73037;51.110;4.706;2023-12-20T14:15:07;8.70;78.10
83146;DHT22;73037;51.110;4.706;2023-12-20T14:17:37;8.70;77.70
83146;DHT22;73037;51.110;4.706;2023-12-20T14:20:07;8.70;78.00
83146;DHT22;73037;51.110;4.706;2023-12-20T14:22:33;8.80;77.60
83146;DHT22;73037;51.110;4.706;2023-12-20T14:24:59;8.70;77.60
83146;DHT22;73037;51.110;4.706;2023-12-20T14:27:26;8.80;78.00
83146;DHT22;73037;51.110;4.706;2023-12-20T14:29:56;8.80;77.90
83146;DHT22;73037;51.110;4.706;2023-12-20T14:32:22;8.80;78.10
83146;DHT22;73037;51.110;4.706;2023-12-20T14:34:48;8.80;77.80
83146;DHT22;73037;51.110;4.706;2023-12-20T14:37:13;8.80;77.60
83146;DHT22;73037;51.110;4.706;2023-12-20T14:39:39;8.90;77.70
83146;DHT22;73037;51.110;4.706;2023-12-20T14:42:07;8.90;78.50
83146;DHT22;73037;51.110;4.706;2023-12-20T14:44:34;8.90;78.00
83146;DHT22;73037;51.110;4.706;2023-12-20T14:47:00;8.90;78.30
83146;DHT22;73037;51.110;4.706;2023-12-20T14:49:27;8.80;77.60
83146;DHT22;73037;51.110;4.706;2023-12-20T14:51:53;8.80;77.80
83146;DHT22;73037;51.110;4.706;2023-12-20T14:54:19;8.80;77.40
83146;DHT22;73037;51.110;4.706;2023-12-20T14:56:46;8.80;77.90
83146;DHT22;73037;51.110;4.706;2023-12-20T14:59:12;8.80;78.30
83146;DHT22;73037;51.110;4.706;2023-12-20T15:01:38;8.80;78.10
83146;DHT22;73037;51.110;4.706;2023-12-20T15:04:09;8.70;77.60
83146;DHT22;73037;51.110;4.706;2023-12-20T15:06:34;8.70;78.40
83146;DHT22;73037;51.110;4.706;2023-12-20T15:09:00;8.70;77.90
83146;DHT22;73037;51.110;4.706;2023-12-20T15:11:27;8.70;77.90
83146;DHT22;73037;51.110;4.706;2023-12-20T15:13:54;8.70;77.90
83146;DHT22;73037;51.110;4.706;2023-12-20T15:16:23;8.70;77.80
83146;DHT22;73037;51.110;4.706;2023-12-20T15:18:49;8.60;77.60
83146;DHT22;73037;51.110;4.706;2023-12-20T15:21:16;8.60;78.30
83146;DHT22;73037;51.110;4.706;2023-12-20T15:23:42;8.70;78.40
83146;DHT22;73037;51.110;4.706;2023-12-20T15:26:18;8.70;78.20
83146;DHT22;73037;51.110;4.706;2023-12-20T15:28:44;8.70;78.20
83146;DHT22;73037;51.110;4.706;2023-12-20T15:31:10;8.70;78.00
83146;DHT22;73037;51.110;4.706;2023-12-20T15:33:35;8.70;77.90
83146;DHT22;73037;51.110;4.706;2023-12-20T15:36:01;8.70;78.00
83146;DHT22;73037;51.110;4.706;2023-12-20T15:38:27;8.70;78.00
83146;DHT22;73037;51.110;4.706;2023-12-20T15:40:52;8.60;77.60
83146;DHT22;73037;51.110;4.706;2023-12-20T15:43:18;8.60;77.70
83146;DHT22;73037;51.110;4.706;2023-12-20T15:45:43;8.60;78.00